M I D A S
Marine Information and Data Acquisition System
Tripno 2207 of the Zeeleeuw from 2011-10-27 06:42:40 to 2011-10-27 15:51:38
Back to CruiseResearch ActivitiesStationsMapUnderway DataData graphs

EquipmentUnitsComment
TimeDGPSUTC
LatitudeDGPSDM.mWGS84
LongitudeDGPSDM.mWGS84
HeadingGyrodeg 
SOGDGPSknotsSpeed over ground
COGDGPSdegCourse over ground
DepthEcho soundermeters200 kHz
Missing or incorrect values are displayed as -999
Navigation data collected by the RV Zeeleeuw from 2011-10-27 06:36:40 to 2011-10-27 16:01:03
Time Latitude Longitude Heading SOG COG Depth
2011-10-27 06:37:45 51°13.636 2°56.019 112.6 0.1 161 6.1
2011-10-27 06:38:45 51°13.637 2°56.008 106.8 1.3 287 6.2
2011-10-27 06:39:49 51°13.654 2°55.943 108.4 3.1 291 -999
2011-10-27 06:40:49 51°13.673 2°55.859 111.2 3.6 291 -999
2011-10-27 06:41:48 51°13.692 2°55.768 99 3.6 282 -999
2011-10-27 06:42:49 51°13.705 2°55.746 50.8 2.6 37 11.6
2011-10-27 06:43:48 51°13.714 2°55.752 4.5 0.6 203 -999
2011-10-27 06:44:49 51°13.743 2°55.722 321 3.8 322 -999
2011-10-27 06:45:48 51°13.808 2°55.656 332 5.6 333 10.4
2011-10-27 06:46:47 51°13.899 2°55.59 336.8 6.4 337 10.3
2011-10-27 06:47:45 51°14.009 2°55.514 335.8 8.2 336 10.2
2011-10-27 06:48:45 51°14.136 2°55.418 334.3 8.6 334 9.7
2011-10-27 06:49:45 51°14.262 2°55.306 330.7 9.3 330 9.8
2011-10-27 06:50:45 51°14.409 2°55.165 328.3 10.7 328 9.9
2011-10-27 06:51:45 51°14.557 2°54.996 322.8 11.2 318 10.7
2011-10-27 06:52:45 51°14.701 2°54.807 326.6 11.2 321 10.4
2011-10-27 06:53:45 51°14.852 2°54.622 328.3 11.9 325 10.8
2011-10-27 06:54:45 51°15.01 2°54.423 322.6 12.2 320 10.3
2011-10-27 06:55:45 51°15.178 2°54.241 331.4 12.2 327 10.8
2011-10-27 06:56:45 51°15.346 2°54.058 330.2 12.2 326 10.7
2011-10-27 06:57:45 51°15.508 2°53.859 326.6 12.4 321 10.8
2011-10-27 06:58:45 51°15.664 2°53.647 325.4 12.4 320 11.1
2011-10-27 06:59:45 51°15.827 2°53.448 330.3 12.2 325 11.3
2011-10-27 07:00:45 51°15.998 2°53.278 334.3 12.1 327 11.4
2011-10-27 07:01:45 51°16.168 2°53.103 335 12.1 329 11.4
2011-10-27 07:02:45 51°16.346 2°52.964 341.2 11.9 336 11.2
2011-10-27 07:03:45 51°16.526 2°52.829 339.5 11.9 335 10.9
2011-10-27 07:04:45 51°16.701 2°52.687 337.3 11.8 333 9.8
2011-10-27 07:05:45 51°16.874 2°52.556 343.6 11.4 339 9
2011-10-27 07:06:45 51°17.054 2°52.466 348.5 11.3 344 8.9
2011-10-27 07:07:45 51°17.235 2°52.383 348.7 11.3 341 9.3
2011-10-27 07:08:45 51°17.415 2°52.305 355.7 11.1 352 9.6
2011-10-27 07:09:45 51°17.598 2°52.309 8.1 11 4 9.5
2011-10-27 07:10:45 51°17.78 2°52.326 7.5 11 5 9.5
2011-10-27 07:11:45 51°17.96 2°52.365 14.3 10.9 11 9.6
2011-10-27 07:12:45 51°18.128 2°52.462 31.8 10.6 31 9.8
2011-10-27 07:13:45 51°18.243 2°52.673 57.6 10.7 61 10.1
2011-10-27 07:14:45 51°18.308 2°52.94 67.5 10.9 72 10.1
2011-10-27 07:15:45 51°18.362 2°53.216 68.8 10.9 72 10.2
2011-10-27 07:16:45 51°18.425 2°53.485 65.5 10.8 68 10.3
2011-10-27 07:17:45 51°18.495 2°53.75 64 10.8 67 10.2
2011-10-27 07:18:45 51°18.573 2°54.009 60.3 10.8 62 10.4
2011-10-27 07:19:45 51°18.658 2°54.262 60.3 10.8 62 10.4
2011-10-27 07:20:45 51°18.737 2°54.521 64.5 10.9 67 10.3
2011-10-27 07:21:45 51°18.802 2°54.79 66.5 10.8 69 10.4
2011-10-27 07:22:45 51°18.871 2°55.056 65.3 10.8 66 10.4
2011-10-27 07:23:45 51°18.949 2°55.314 63.2 10.8 64 10.3
2011-10-27 07:24:45 51°19.023 2°55.575 66.5 10.8 69 10.3
2011-10-27 07:25:45 51°19.093 2°55.839 64.3 10.8 65 10.2
2011-10-27 07:26:45 51°19.172 2°56.095 63.2 10.7 64 10.2
2011-10-27 07:27:45 51°19.247 2°56.355 65 10.8 66 10.2
2011-10-27 07:28:45 51°19.318 2°56.615 66.1 10.6 66 10.1
2011-10-27 07:29:45 51°19.39 2°56.873 63.4 10.6 63 10
2011-10-27 07:30:45 51°19.47 2°57.123 62.5 10.6 63 10
2011-10-27 07:31:45 51°19.548 2°57.377 62.9 10.6 64 10
2011-10-27 07:32:45 51°19.618 2°57.636 66.9 10.6 68 9.9
2011-10-27 07:33:45 51°19.692 2°57.892 64.2 10.6 65 10
2011-10-27 07:34:45 51°19.762 2°58.15 68 10.6 69 9.8
2011-10-27 07:35:45 51°19.826 2°58.408 66.2 10.5 66 9.7
2011-10-27 07:36:45 51°19.902 2°58.657 65.4 10.5 65 9.6
2011-10-27 07:37:45 51°19.965 2°58.913 68.9 10.4 68 9.6
2011-10-27 07:38:45 51°20.034 2°59.165 65.4 10.3 64 9.6
2011-10-27 07:39:45 51°20.108 2°59.409 65.3 10.2 66 9.5
2011-10-27 07:40:45 51°20.17 2°59.66 70.9 10.2 71 9.5
2011-10-27 07:41:45 51°20.233 2°59.91 64.2 10.1 63 9.4
2011-10-27 07:42:45 51°20.303 3°0.156 70.1 10.2 70 9.4
2011-10-27 07:43:45 51°20.357 3°0.413 70.3 10.2 71 9.4
2011-10-27 07:44:45 51°20.417 3°0.666 68.8 10.2 68 9.5
2011-10-27 07:45:45 51°20.482 3°0.914 67.1 10.1 67 9.4
2011-10-27 07:46:45 51°20.547 3°1.164 68 10.3 68 9.3
2011-10-27 07:47:45 51°20.61 3°1.418 68.3 10.3 69 9.3
2011-10-27 07:48:45 51°20.678 3°1.671 67.9 10.3 68 9.3
2011-10-27 07:49:45 51°20.735 3°1.93 70.8 10.4 71 9.3
2011-10-27 07:50:45 51°20.799 3°2.186 68.4 10.5 68 9.6
2011-10-27 07:51:45 51°20.869 3°2.442 65.9 10.6 66 9.9
2011-10-27 07:52:45 51°20.935 3°2.702 69.4 10.5 69 10
2011-10-27 07:53:45 51°21.007 3°2.957 66.7 10.6 68 9.9
2011-10-27 07:54:45 51°21.064 3°3.222 70.8 10.6 71 10.2
2011-10-27 07:55:45 51°21.122 3°3.486 69.9 10.5 70 10.1
2011-10-27 07:56:45 51°21.193 3°3.741 66.3 10.5 65 10.2
2011-10-27 07:57:45 51°21.261 3°3.996 69.5 10.4 70 10.3
2011-10-27 07:58:45 51°21.321 3°4.255 69.1 10.3 68 10.4
2011-10-27 07:59:45 51°21.391 3°4.505 66.1 10.3 66 10.4
2011-10-27 08:00:45 51°21.454 3°4.76 70.9 10.4 71 10.4
2011-10-27 08:01:45 51°21.516 3°5.017 66.4 10.3 66 10.4
2011-10-27 08:02:45 51°21.583 3°5.269 68.7 10.3 68 10.4
2011-10-27 08:03:45 51°21.643 3°5.523 68.4 10.2 67 10.3
2011-10-27 08:04:45 51°21.71 3°5.774 66.8 10.3 66 10.5
2011-10-27 08:05:45 51°21.778 3°6.022 68.3 10.2 68 10.5
2011-10-27 08:06:45 51°21.837 3°6.279 69.6 10.3 68 10.6
2011-10-27 08:07:45 51°21.902 3°6.534 68 10.5 68 10.8
2011-10-27 08:08:45 51°21.97 3°6.791 68.6 10.5 70 11.3
2011-10-27 08:09:45 51°22.025 3°7.057 74 10.6 75 11.7
2011-10-27 08:10:45 51°22.071 3°7.33 73.4 10.7 73 11.8
2011-10-27 08:11:45 51°22.122 3°7.602 71.7 10.7 72 12
2011-10-27 08:12:45 51°22.179 3°7.874 71.2 10.9 72 12
2011-10-27 08:13:45 51°22.227 3°8.154 74.5 11 76 12.2
2011-10-27 08:14:45 51°22.28 3°8.434 69 11 69 12.3
2011-10-27 08:15:45 51°22.343 3°8.71 72.6 11.1 75 12.4
2011-10-27 08:16:45 51°22.348 3°8.994 88.5 10.8 91 12.5
2011-10-27 08:17:45 51°22.334 3°9.291 93 11.4 97 12.8
2011-10-27 08:18:45 51°22.331 3°9.593 85.7 11.4 89 13.1
2011-10-27 08:19:45 51°22.335 3°9.899 84.4 11.4 87 13.5
2011-10-27 08:20:45 51°22.365 3°10.199 77.8 11.4 80 14.1
2011-10-27 08:21:45 51°22.391 3°10.475 80.9 8.2 82 18.1
2011-10-27 08:22:45 51°22.41 3°10.652 77.7 6.1 78 16.7
2011-10-27 08:23:45 51°22.431 3°10.807 78.4 5.8 79 15.9
2011-10-27 08:24:45 51°22.449 3°10.958 79.5 5.7 80 15.4
2011-10-27 08:25:45 51°22.462 3°11.108 81.4 5.7 83 15.4
2011-10-27 08:26:45 51°22.475 3°11.266 82.1 6.5 83 15.4
2011-10-27 08:27:45 51°22.489 3°11.448 81.2 7.1 81 15.3
2011-10-27 08:28:45 51°22.511 3°11.635 77 7.2 77 15.1
2011-10-27 08:29:45 51°22.532 3°11.823 86.5 7 92 14.6
2011-10-27 08:30:45 51°22.488 3°11.93 142.3 2.8 162 15
2011-10-27 08:31:45 51°22.469 3°11.917 193 1.3 232 15.1
2011-10-27 08:32:45 51°22.46 3°11.886 216.7 1.3 251 15.3
2011-10-27 08:33:45 51°22.453 3°11.854 218.1 1.2 253 15.3
2011-10-27 08:34:45 51°22.448 3°11.825 215.7 1.1 252 15.3
2011-10-27 08:35:45 51°22.444 3°11.797 213.8 1 259 15.4
2011-10-27 08:36:45 51°22.441 3°11.772 214.9 1 260 15.5
2011-10-27 08:37:45 51°22.439 3°11.746 214.2 1 261 15.6
2011-10-27 08:38:45 51°22.437 3°11.721 212.9 1 264 15.5
2011-10-27 08:39:45 51°22.437 3°11.697 213.5 0.9 274 15.6
2011-10-27 08:40:45 51°22.436 3°11.672 213.6 0.9 269 15.5
2011-10-27 08:41:45 51°22.436 3°11.648 212.7 0.9 270 15.6
2011-10-27 08:42:45 51°22.436 3°11.624 213.7 0.9 269 15.5
2011-10-27 08:43:45 51°22.436 3°11.6 215.2 0.9 272 15.6
2011-10-27 08:44:45 51°22.438 3°11.579 218.5 0.8 287 15.6
2011-10-27 08:45:45 51°22.44 3°11.558 226.3 0.8 284 15.6
2011-10-27 08:46:45 51°22.444 3°11.541 236 0.6 297 15.6
2011-10-27 08:47:45 51°22.449 3°11.53 248.3 0.5 307 15.6
2011-10-27 08:48:45 51°22.453 3°11.523 261.2 0.3 306 15.6
2011-10-27 08:49:45 51°22.455 3°11.519 271.5 0.1 293 15.7
2011-10-27 08:50:45 51°22.455 3°11.515 279.1 0.2 267 15.7
2011-10-27 08:51:45 51°22.454 3°11.508 285.5 0.8 277 15.7
2011-10-27 08:52:45 51°22.485 3°11.425 308.5 6.4 306 15.6
2011-10-27 08:53:45 51°22.575 3°11.274 326 8.6 321 15.3
2011-10-27 08:54:45 51°22.687 3°11.118 321.8 9.1 317 14.6
2011-10-27 08:55:45 51°22.798 3°10.951 323.5 9.2 319 13.9
2011-10-27 08:56:45 51°22.916 3°10.797 327.3 9 322 13.6
2011-10-27 08:57:45 51°23.03 3°10.641 323.8 9 319 12.9
2011-10-27 08:58:45 51°23.139 3°10.477 322.4 8.9 317 13
2011-10-27 08:59:45 51°23.247 3°10.324 328.1 7.9 320 13.5
2011-10-27 09:00:45 51°23.318 3°10.224 328.2 4.5 318 13.6
2011-10-27 09:01:45 51°23.364 3°10.166 341.8 2.8 326 13.6
2011-10-27 09:02:45 51°23.41 3°10.138 0.2 5.2 355 13.9
2011-10-27 09:03:45 51°23.518 3°10.178 26.1 6 24 13.9
2011-10-27 09:04:45 51°23.573 3°10.236 44.6 2.9 39 14.1
2011-10-27 09:05:45 51°23.604 3°10.279 49.4 2.6 44 14
2011-10-27 09:06:45 51°23.639 3°10.342 52.3 3.5 50 14.1
2011-10-27 09:07:45 51°23.678 3°10.415 51.6 3.7 49 14.1
2011-10-27 09:08:45 51°23.72 3°10.487 50.9 3.7 48 14.4
2011-10-27 09:09:45 51°23.752 3°10.568 65.7 3.6 67 13.8
2011-10-27 09:10:45 51°23.771 3°10.66 71 3.7 72 14.5
2011-10-27 09:11:45 51°23.792 3°10.751 67.4 3.7 67 14.6
2011-10-27 09:12:45 51°23.811 3°10.844 74.6 3.7 78 14.7
2011-10-27 09:13:45 51°23.822 3°10.942 77 3.8 80 14.6
2011-10-27 09:14:45 51°23.835 3°11.042 76.3 3.8 78 14
2011-10-27 09:15:45 51°23.853 3°11.139 68.9 3.8 69 14.8
2011-10-27 09:16:45 51°23.878 3°11.233 66.5 3.8 68 14.1
2011-10-27 09:17:45 51°23.903 3°11.328 67.6 3.9 68 15.4
2011-10-27 09:18:45 51°23.928 3°11.423 68.1 3.9 68 15.3
2011-10-27 09:19:45 51°23.951 3°11.52 70 3.9 70 15.6
2011-10-27 09:20:45 51°23.973 3°11.618 72.2 3.9 72 15.3
2011-10-27 09:21:45 51°23.984 3°11.721 85 3.9 87 15.9
2011-10-27 09:22:45 51°23.98 3°11.817 96.7 3.5 99 15.6
2011-10-27 09:23:45 51°23.974 3°11.907 87.8 3.4 89 15.4
2011-10-27 09:24:45 51°23.98 3°11.996 81.8 3.4 83 14.7
2011-10-27 09:25:45 51°23.99 3°12.085 79.5 3.4 79 14.8
2011-10-27 09:26:45 51°24 3°12.174 78.5 3.5 78 14.8
2011-10-27 09:27:45 51°24.013 3°12.261 76.1 3.4 76 14.9
2011-10-27 09:28:45 51°24.026 3°12.349 82.4 3.4 82 15.3
2011-10-27 09:29:45 51°24.023 3°12.439 96.6 3.3 97 14.5
2011-10-27 09:30:45 51°24.011 3°12.525 104.6 3.3 107 14.7
2011-10-27 09:31:45 51°23.988 3°12.608 114 3.6 118 14.2
2011-10-27 09:32:45 51°23.953 3°12.693 124.7 4 128 13.2
2011-10-27 09:33:45 51°23.908 3°12.757 141.7 3.3 146 12.2
2011-10-27 09:34:45 51°23.86 3°12.789 157.2 2.6 165 12
2011-10-27 09:35:45 51°23.824 3°12.796 166.7 1.9 180 12.5
2011-10-27 09:36:45 51°23.797 3°12.792 172 1.3 190 12.3
2011-10-27 09:37:45 51°23.778 3°12.784 176.2 1.1 200 12.2
2011-10-27 09:38:45 51°23.764 3°12.774 179.9 0.9 205 12.2
2011-10-27 09:39:45 51°23.748 3°12.765 181.4 1.6 191 12.1
2011-10-27 09:40:45 51°23.703 3°12.731 223.6 4.2 230 12
2011-10-27 09:41:45 51°23.714 3°12.628 317 4.3 320 12.2
2011-10-27 09:42:45 51°23.79 3°12.652 32.7 7.2 34 12.3
2011-10-27 09:43:45 51°23.928 3°12.775 30.5 10.3 31 13.3
2011-10-27 09:44:45 51°24.027 3°12.9 46 5.5 48 13.8
2011-10-27 09:45:45 51°24.066 3°12.989 61.1 3.2 61 14
2011-10-27 09:46:45 51°24.084 3°13.048 65.3 2.1 66 14.1
2011-10-27 09:47:45 51°24.097 3°13.09 64.9 1.6 64 14.1
2011-10-27 09:48:45 51°24.109 3°13.128 63.9 1.8 62 14.2
2011-10-27 09:49:45 51°24.122 3°13.173 65.4 2 64 14.3
2011-10-27 09:50:45 51°24.136 3°13.225 70.5 2.2 70 14.5
2011-10-27 09:51:45 51°24.147 3°13.281 77.3 2.3 78 14.6
2011-10-27 09:52:45 51°24.153 3°13.342 83.8 2.3 83 14.5
2011-10-27 09:53:45 51°24.157 3°13.404 84.3 2.3 82 14.4
2011-10-27 09:54:45 51°24.161 3°13.464 85.9 2.3 83 14.4
2011-10-27 09:55:45 51°24.166 3°13.525 86.3 2.3 83 14.3
2011-10-27 09:56:45 51°24.169 3°13.588 86.7 2.4 85 14.3
2011-10-27 09:57:45 51°24.173 3°13.651 87.2 2.4 85 14.2
2011-10-27 09:58:45 51°24.177 3°13.758 87.2 5.8 87 14.1
2011-10-27 09:59:45 51°24.187 3°13.952 84.5 8 86 14.1
2011-10-27 10:00:45 51°24.197 3°14.173 86.3 8.4 87 14
2011-10-27 10:01:45 51°24.202 3°14.397 89.1 8.4 89 14.4
2011-10-27 10:02:45 51°24.218 3°14.596 72.4 7.1 72 14
2011-10-27 10:03:45 51°24.266 3°14.78 64.7 9.4 66 14.3
2011-10-27 10:04:45 51°24.343 3°15.052 59.6 12.5 61 15.3
2011-10-27 10:05:45 51°24.504 3°15.241 12.4 12.3 12 19.3
2011-10-27 10:06:45 51°24.708 3°15.261 352.4 12.4 352 20
2011-10-27 10:07:45 51°24.891 3°15.145 326 11.7 327 17.4
2011-10-27 10:08:45 51°25.035 3°14.94 309.4 11.6 308 15.6
2011-10-27 10:09:45 51°25.1 3°14.657 280.9 11.6 277 14.6
2011-10-27 10:10:45 51°25.095 3°14.346 265.7 11.8 265 14.4
2011-10-27 10:11:45 51°25.091 3°14.033 269.6 11.8 268 14.1
2011-10-27 10:12:45 51°25.077 3°13.721 266.5 11.8 266 13.7
2011-10-27 10:13:45 51°25.093 3°13.412 280.8 11.7 278 13.6
2011-10-27 10:14:45 51°25.117 3°13.102 277.2 11.8 276 13
2011-10-27 10:15:45 51°25.122 3°12.79 269.2 11.8 267 12.6
2011-10-27 10:16:45 51°25.106 3°12.477 267.7 11.8 266 12.1
2011-10-27 10:17:45 51°25.1 3°12.166 271.9 11.7 269 11.7
2011-10-27 10:18:45 51°25.082 3°11.856 265.4 11.7 262 11.5
2011-10-27 10:19:45 51°25.083 3°11.547 277.7 11.6 276 11.1
2011-10-27 10:20:45 51°25.09 3°11.24 268.6 11.7 264 10.7
2011-10-27 10:21:45 51°25.057 3°10.932 262.9 11.7 259 10.4
2011-10-27 10:22:45 51°25.02 3°10.625 263 11.7 260 10
2011-10-27 10:23:45 51°24.994 3°10.317 266.5 11.6 263 9.7
2011-10-27 10:24:45 51°24.966 3°10.011 262.3 11.6 258 9.2
2011-10-27 10:25:45 51°24.913 3°9.711 257.8 11.8 254 9.2
2011-10-27 10:26:45 51°24.861 3°9.408 257 11.8 253 9.3
2011-10-27 10:27:45 51°24.801 3°9.108 256.1 11.8 253 9.9
2011-10-27 10:28:45 51°24.752 3°8.803 258.8 11.8 257 10.5
2011-10-27 10:29:45 51°24.727 3°8.494 269.2 11.6 267 11
2011-10-27 10:30:45 51°24.714 3°8.184 268.1 11.6 266 11.4
2011-10-27 10:31:45 51°24.712 3°7.874 274.2 11.7 272 11.7
2011-10-27 10:32:45 51°24.725 3°7.565 279.4 11.6 277 11.9
2011-10-27 10:33:45 51°24.752 3°7.261 281.7 11.6 279 12.4
2011-10-27 10:34:45 51°24.783 3°6.959 281.2 11.5 281 12.7
2011-10-27 10:35:45 51°24.834 3°6.666 291.8 11.4 289 12.9
2011-10-27 10:36:45 51°24.883 3°6.372 284.8 11.5 280 13.1
2011-10-27 10:37:45 51°24.912 3°6.07 282.7 11.4 280 13.3
2011-10-27 10:38:45 51°24.955 3°5.774 285.1 11.4 282 13.8
2011-10-27 10:39:45 51°25.006 3°5.48 290.6 11.4 288 14.3
2011-10-27 10:40:45 51°25.077 3°5.201 300 11.4 300 14.3
2011-10-27 10:41:45 51°25.198 3°4.973 319.4 11.2 321 14.3
2011-10-27 10:42:45 51°25.348 3°4.791 326 11.2 330 13.9
2011-10-27 10:43:45 51°25.527 3°4.691 344.2 11.5 347 13.6
2011-10-27 10:44:45 51°25.712 3°4.613 343.6 11.4 345 13.6
2011-10-27 10:45:45 51°25.898 3°4.534 343.1 11.7 346 13.3
2011-10-27 10:46:45 51°26.082 3°4.442 338.3 11.5 339 13.1
2011-10-27 10:47:45 51°26.264 3°4.344 341.6 11.7 345 13.2
2011-10-27 10:48:45 51°26.448 3°4.258 338.1 11.6 339 13.6
2011-10-27 10:49:45 51°26.628 3°4.152 340.1 11.5 344 13.1
2011-10-27 10:50:45 51°26.813 3°4.073 342.5 11.4 344 13
2011-10-27 10:51:45 51°26.992 3°3.972 339.9 11.4 343 14.1
2011-10-27 10:52:45 51°27.178 3°3.89 342.3 11.6 344 15.4
2011-10-27 10:53:45 51°27.361 3°3.79 336.5 11.6 337 16.8
2011-10-27 10:54:45 51°27.544 3°3.687 340.6 11.7 342 18.2
2011-10-27 10:55:45 51°27.733 3°3.606 344.8 11.9 348 19.5
2011-10-27 10:56:45 51°27.918 3°3.537 343.3 9.6 346 21.4
2011-10-27 10:57:45 51°28.039 3°3.488 339.8 6.5 345 22.4
2011-10-27 10:58:45 51°28.143 3°3.448 341.1 6.4 347 23.4
2011-10-27 10:59:45 51°28.245 3°3.443 2 5.2 12 24.1
2011-10-27 11:00:45 51°28.312 3°3.488 22 5.3 29 24.8
2011-10-27 11:01:45 51°28.418 3°3.564 15.8 6.1 23 25
2011-10-27 11:02:45 51°28.482 3°3.628 31.5 3.7 42 25.1
2011-10-27 11:03:45 51°28.524 3°3.693 37.3 3.6 43 25.1
2011-10-27 11:04:45 51°28.568 3°3.768 40.9 4.1 48 25.4
2011-10-27 11:05:45 51°28.615 3°3.852 42 4.3 50 25.2
2011-10-27 11:06:45 51°28.663 3°3.937 40.4 4.2 47 25.4
2011-10-27 11:07:45 51°28.71 3°4.017 40.8 4.1 48 25.3
2011-10-27 11:08:45 51°28.754 3°4.102 45.8 4.2 53 25.4
2011-10-27 11:09:45 51°28.796 3°4.193 49.7 4.2 53 25.6
2011-10-27 11:10:45 51°28.837 3°4.285 52.4 4.3 54 25.5
2011-10-27 11:11:45 51°28.877 3°4.377 50.2 4.2 53 25.6
2011-10-27 11:12:45 51°28.921 3°4.466 46 4.4 50 25.3
2011-10-27 11:13:45 51°28.965 3°4.554 43.9 4.2 49 25.7
2011-10-27 11:14:45 51°29.012 3°4.638 42.9 4.3 49 25.8
2011-10-27 11:15:45 51°29.06 3°4.725 42.1 4.3 49 25.8
2011-10-27 11:16:45 51°29.108 3°4.813 43.7 4.4 49 25.9
2011-10-27 11:17:45 51°29.154 3°4.901 45 4.4 50 25.9
2011-10-27 11:18:45 51°29.2 3°4.992 47.5 4.4 52 25.9
2011-10-27 11:19:45 51°29.246 3°5.084 45.1 4.4 51 25.8
2011-10-27 11:20:45 51°29.293 3°5.175 44 4.5 50 25.9
2011-10-27 11:21:45 51°29.343 3°5.265 42.6 4.5 48 25.7
2011-10-27 11:22:45 51°29.392 3°5.355 43.1 4.5 48 25.9
2011-10-27 11:23:45 51°29.442 3°5.445 42 4.5 46 25.9
2011-10-27 11:24:45 51°29.491 3°5.536 44.2 4.6 49 25.8
2011-10-27 11:25:45 51°29.538 3°5.628 46.3 4.4 50 26
2011-10-27 11:26:45 51°29.584 3°5.724 47.3 4.5 53 25.9
2011-10-27 11:27:45 51°29.633 3°5.817 43.6 4.6 51 26
2011-10-27 11:28:45 51°29.681 3°5.911 48.1 4.6 54 26
2011-10-27 11:29:45 51°29.717 3°6.016 66.9 4.5 66 26.2
2011-10-27 11:30:45 51°29.743 3°6.125 77.6 4.4 73 25.8
2011-10-27 11:31:45 51°29.76 3°6.239 87.3 4.4 79 25.7
2011-10-27 11:32:45 51°29.768 3°6.356 96.8 4.4 87 25.2
2011-10-27 11:33:45 51°29.766 3°6.472 108.2 4.4 95 25.1
2011-10-27 11:34:44 51°29.753 3°6.582 121.3 4.2 107 24.5
2011-10-27 11:35:45 51°29.725 3°6.668 165.4 3 140 24.2
2011-10-27 11:36:45 51°29.691 3°6.702 184.9 1.8 144 23.6
2011-10-27 11:37:45 51°29.662 3°6.727 188.5 2.5 163 23.5
2011-10-27 11:38:45 51°29.603 3°6.736 195.1 3.8 180 23
2011-10-27 11:39:45 51°29.553 3°6.738 198.2 2.2 170 23
2011-10-27 11:40:45 51°29.528 3°6.753 197.8 1.2 149 22.7
2011-10-27 11:41:45 51°29.516 3°6.775 195.5 1 107 22.5
2011-10-27 11:42:45 51°29.512 3°6.8 191.6 0.9 96 22.5
2011-10-27 11:43:45 51°29.495 3°6.791 246.3 2.3 254 22.4
2011-10-27 11:44:45 51°29.42 3°6.625 229.4 10 228 22.4
2011-10-27 11:45:44 51°29.314 3°6.413 233.5 10.5 233 22.2
2011-10-27 11:46:45 51°29.217 3°6.177 239.5 10.3 240 22
2011-10-27 11:47:45 51°29.135 3°5.936 241.7 10.3 244 22.2
2011-10-27 11:48:45 51°29.042 3°5.705 236 10.4 237 22.8
2011-10-27 11:49:45 51°28.947 3°5.475 236.7 10.3 238 22.8
2011-10-27 11:50:45 51°28.865 3°5.233 242.3 10.4 242 23.3
2011-10-27 11:51:45 51°28.777 3°4.995 237.9 10.4 238 23.7
2011-10-27 11:52:45 51°28.695 3°4.753 240.5 10.3 242 23.8
2011-10-27 11:53:45 51°28.602 3°4.52 238.9 10.4 241 24.1
2011-10-27 11:54:45 51°28.521 3°4.275 240.9 10.4 243 24.5
2011-10-27 11:55:45 51°28.436 3°4.033 239.8 10.4 239 24.6
2011-10-27 11:56:45 51°28.341 3°3.806 236.6 10.3 237 24.5
2011-10-27 11:57:45 51°28.254 3°3.567 238.2 10.4 237 24.7
2011-10-27 11:58:45 51°28.227 3°3.365 268.9 4.6 278 25.4
2011-10-27 11:59:44 51°28.261 3°3.314 307.3 2.4 355 25.6
2011-10-27 12:00:45 51°28.293 3°3.333 332.9 1.9 36 25.8
2011-10-27 12:01:45 51°28.319 3°3.366 349.4 2.1 41 25.8
2011-10-27 12:02:45 51°28.345 3°3.403 0.9 2 45 25.9
2011-10-27 12:03:45 51°28.363 3°3.441 5.8 1.4 79 25.6
2011-10-27 12:04:48 51°28.351 3°3.483 347 1.9 115 -999
2011-10-27 12:05:48 51°28.365 3°3.52 303.5 2.1 66 25.5
2011-10-27 12:06:45 51°28.38 3°3.561 284 1.8 54 25.5
2011-10-27 12:07:45 51°28.399 3°3.599 267.5 1.9 49 25.5
2011-10-27 12:08:45 51°28.419 3°3.636 258.3 1.8 47 25.6
2011-10-27 12:09:45 51°28.44 3°3.672 249.6 1.9 49 25.8
2011-10-27 12:10:45 51°28.461 3°3.708 244.3 1.9 47 25.9
2011-10-27 12:11:45 51°28.482 3°3.744 239.9 1.8 48 25.6
2011-10-27 12:12:45 51°28.503 3°3.78 236.2 1.9 46 25.8
2011-10-27 12:13:45 51°28.523 3°3.814 234 1.7 47 25.9
2011-10-27 12:14:45 51°28.543 3°3.849 230 1.8 47 26
2011-10-27 12:15:45 51°28.564 3°3.882 227.9 1.8 44 25.8
2011-10-27 12:16:45 51°28.585 3°3.917 227.4 1.8 45 25.9
2011-10-27 12:17:45 51°28.598 3°3.925 256.2 1 329 25.9
2011-10-27 12:18:45 51°28.642 3°3.899 328.2 4.4 -999 26.1
2011-10-27 12:19:45 51°28.719 3°3.957 29.2 4.9 38 26.5
2011-10-27 12:20:45 51°28.771 3°4.038 45.5 4 47 26.2
2011-10-27 12:21:45 51°28.812 3°4.115 55.9 3.6 51 26.3
2011-10-27 12:22:45 51°28.843 3°4.193 71 3.5 58 26.3
2011-10-27 12:23:45 51°28.87 3°4.272 82.6 3.3 65 26.2
2011-10-27 12:24:45 51°28.892 3°4.352 91.2 3.2 67 26.3
2011-10-27 12:25:45 51°28.912 3°4.431 97.6 3.1 70 26
2011-10-27 12:26:45 51°28.93 3°4.511 102.4 3.1 71 26.1
2011-10-27 12:27:45 51°28.947 3°4.59 104.6 3.1 72 25.9
2011-10-27 12:28:45 51°28.962 3°4.669 107.4 3.1 72 25.7
2011-10-27 12:29:45 51°28.976 3°4.747 109.9 3 75 25.8
2011-10-27 12:30:45 51°28.987 3°4.823 124.3 2.8 81 25.6
2011-10-27 12:31:45 51°28.976 3°4.884 177 2.1 142 25.5
2011-10-27 12:32:45 51°28.958 3°4.864 247.2 2.1 260 25.4
2011-10-27 12:33:45 51°28.93 3°4.725 245.4 8.1 252 25.5
2011-10-27 12:34:45 51°28.876 3°4.477 246.8 10.3 251 25.6
2011-10-27 12:35:45 51°28.825 3°4.213 251.8 10.4 256 26.2
2011-10-27 12:36:45 51°28.769 3°3.951 243.9 10.4 248 26.3
2011-10-27 12:37:45 51°28.706 3°3.695 243.3 10.2 246 26.4
2011-10-27 12:38:45 51°28.649 3°3.438 245.7 10.1 249 26.4
2011-10-27 12:39:45 51°28.59 3°3.183 248.1 10.2 251 26.5
2011-10-27 12:40:45 51°28.532 3°2.927 242.6 10.1 245 26.4
2011-10-27 12:41:45 51°28.472 3°2.672 247.1 10.2 251 26.2
2011-10-27 12:42:45 51°28.41 3°2.416 241.9 10.3 247 26.3
2011-10-27 12:43:45 51°28.357 3°2.156 250.9 10.2 253 26.5
2011-10-27 12:44:45 51°28.302 3°1.895 245.8 10.4 250 26.2
2011-10-27 12:45:45 51°28.248 3°1.629 247.6 10.5 253 26.2
2011-10-27 12:46:45 51°28.206 3°1.353 251 10.7 258 25.8
2011-10-27 12:47:45 51°28.159 3°1.08 246.9 10.7 249 25.2
2011-10-27 12:48:45 51°28.102 3°0.806 248.9 10.8 253 24.4
2011-10-27 12:49:45 51°28.047 3°0.531 248.9 10.8 252 23.7
2011-10-27 12:50:45 51°27.99 3°0.259 246.1 10.8 250 24.6
2011-10-27 12:51:45 51°27.938 2°59.983 248.4 10.7 252 22.2
2011-10-27 12:52:45 51°27.871 2°59.72 241.5 10.6 245 22.3
2011-10-27 12:53:45 51°27.803 2°59.454 242.7 10.8 247 21.2
2011-10-27 12:54:45 51°27.736 2°59.189 242.3 10.6 246 21.3
2011-10-27 12:55:45 51°27.664 2°58.927 242.5 10.9 247 20.7
2011-10-27 12:56:45 51°27.603 2°58.656 244.4 10.7 247 21.1
2011-10-27 12:57:45 51°27.543 2°58.388 245.5 10.6 248 22.6
2011-10-27 12:58:45 51°27.474 2°58.126 245.8 10.7 249 23.3
2011-10-27 12:59:45 51°27.411 2°57.86 242.4 10.7 246 23.1
2011-10-27 13:00:45 51°27.348 2°57.594 246 10.7 250 27.2
2011-10-27 13:01:45 51°27.283 2°57.335 241.7 10.4 245 27.9
2011-10-27 13:02:45 51°27.215 2°57.074 245.9 10.6 250 27.4
2011-10-27 13:03:45 51°27.151 2°56.815 242.4 10.3 245 23.5
2011-10-27 13:04:45 51°27.088 2°56.559 245.6 10.4 251 23.4
2011-10-27 13:05:45 51°27.021 2°56.303 243 10.5 246 29.3
2011-10-27 13:06:45 51°26.959 2°56.04 246.9 10.6 251 30.7
2011-10-27 13:07:45 51°26.892 2°55.779 244 10.5 248 30.9
2011-10-27 13:08:45 51°26.822 2°55.523 241.1 10.3 245 30
2011-10-27 13:09:45 51°26.762 2°55.262 246 10.4 250 29.9
2011-10-27 13:10:45 51°26.706 2°55.006 246.9 10.2 252 30
2011-10-27 13:11:45 51°26.644 2°54.753 244.6 10.2 249 29.6
2011-10-27 13:12:45 51°26.575 2°54.508 243 10 246 26.3
2011-10-27 13:13:45 51°26.516 2°54.256 247.2 10.2 250 32.2
2011-10-27 13:14:45 51°26.454 2°54.002 243.5 10.3 247 35.2
2011-10-27 13:15:45 51°26.388 2°53.747 241.8 10.3 244 35.1
2011-10-27 13:16:45 51°26.312 2°53.5 241 10.5 246 34.8
2011-10-27 13:17:45 51°26.25 2°53.238 243.7 10.4 246 33.8
2011-10-27 13:18:45 51°26.177 2°52.984 239.9 10.5 244 32.3
2011-10-27 13:19:45 51°26.103 2°52.732 241.1 10.5 245 29.7
2011-10-27 13:20:45 51°26.039 2°52.471 246.2 10.5 250 30.9
2011-10-27 13:21:45 51°25.97 2°52.214 241.5 10.5 248 29.7
2011-10-27 13:22:45 51°25.901 2°51.959 240.2 10.5 243 29.1
2011-10-27 13:23:45 51°25.826 2°51.707 239.6 10.4 243 33.9
2011-10-27 13:24:45 51°25.759 2°51.452 245 10.3 249 26
2011-10-27 13:25:45 51°25.696 2°51.193 244.8 10.4 249 26.3
2011-10-27 13:26:45 51°25.635 2°50.933 243.2 10.4 247 26.5
2011-10-27 13:27:45 51°25.56 2°50.681 239.1 10.5 243 26
2011-10-27 13:28:45 51°25.499 2°50.419 244.5 10.5 250 26.1
2011-10-27 13:29:45 51°25.438 2°50.156 245.4 10.6 248 25.8
2011-10-27 13:30:45 51°25.379 2°49.89 247.4 10.6 254 25.5
2011-10-27 13:31:45 51°25.325 2°49.621 246.6 10.7 252 25.3
2011-10-27 13:32:45 51°25.27 2°49.353 245.4 10.4 249 25.3
2011-10-27 13:33:45 51°25.207 2°49.095 245.7 10.4 252 25.8
2011-10-27 13:34:45 51°25.154 2°48.83 247.1 10.5 251 27.4
2011-10-27 13:35:45 51°25.089 2°48.569 243.1 10.6 249 29.7
2011-10-27 13:36:45 51°25.036 2°48.303 245.5 10.5 251 31.7
2011-10-27 13:37:45 51°24.987 2°48.056 245.7 7 252 31.7
2011-10-27 13:38:45 51°24.959 2°47.976 218.6 1.4 220 31.3
2011-10-27 13:39:45 51°24.968 2°47.991 225.5 1.8 43 31.4
2011-10-27 13:40:45 51°24.99 2°48.021 236 1.7 40 31.6
2011-10-27 13:41:45 51°25.013 2°48.05 242.3 1.7 36 31.5
2011-10-27 13:42:45 51°25.035 2°48.075 248 1.7 33 32.5
2011-10-27 13:43:45 51°25.058 2°48.099 251.8 1.6 33 32.5
2011-10-27 13:44:45 51°25.081 2°48.121 254.8 1.7 32 32.8
2011-10-27 13:45:45 51°25.103 2°48.144 250.8 1.6 33 32.6
2011-10-27 13:46:45 51°25.125 2°48.167 247.6 1.6 34 32.6
2011-10-27 13:47:45 51°25.148 2°48.191 244.9 1.6 35 32.5
2011-10-27 13:48:45 51°25.17 2°48.216 242.8 1.7 34 32.4
2011-10-27 13:49:45 51°25.192 2°48.241 242.2 1.7 36 32.3
2011-10-27 13:50:45 51°25.215 2°48.267 240.5 1.7 36 32.3
2011-10-27 13:51:45 51°25.238 2°48.293 237.4 1.8 34 32.4
2011-10-27 13:52:45 51°25.261 2°48.319 235.2 1.7 37 32.3
2011-10-27 13:53:45 51°25.284 2°48.346 231 1.7 38 32.1
2011-10-27 13:54:45 51°25.306 2°48.374 229.2 1.7 39 32.1
2011-10-27 13:55:45 51°25.329 2°48.401 229.2 1.6 37 31.8
2011-10-27 13:56:45 51°25.351 2°48.427 230.2 1.7 37 31.8
2011-10-27 13:57:45 51°25.359 2°48.425 227.9 2.6 237 31.8
2011-10-27 13:58:45 51°25.285 2°48.291 224.8 6.1 224 32
2011-10-27 13:59:45 51°25.221 2°48.312 152.9 4.9 134 32.3
2011-10-27 14:00:45 51°25.147 2°48.439 145.5 7.2 135 31.4
2011-10-27 14:01:45 51°25.082 2°48.516 177.4 3.3 160 29.9
2011-10-27 14:02:45 51°25.041 2°48.513 209.3 2.6 207 29.7
2011-10-27 14:03:45 51°25.004 2°48.455 225.6 3.4 233 28.6
2011-10-27 14:04:44 51°24.974 2°48.378 231.3 3.1 239 29.8
2011-10-27 14:05:45 51°24.945 2°48.31 227.3 3 234 29.5
2011-10-27 14:06:45 51°24.918 2°48.245 231.6 2.8 240 30.2
2011-10-27 14:07:45 51°24.903 2°48.174 242.2 2.9 257 31.1
2011-10-27 14:08:45 51°24.895 2°48.101 242.5 2.8 259 30.7
2011-10-27 14:09:45 51°24.885 2°48.029 241.1 2.9 258 30.9
2011-10-27 14:10:45 51°24.87 2°47.944 239.3 3.5 251 30.8
2011-10-27 14:11:45 51°24.849 2°47.854 238.2 3.6 248 31.3
2011-10-27 14:12:45 51°24.83 2°47.77 238.8 3.3 251 31.7
2011-10-27 14:13:45 51°24.812 2°47.69 237.5 3.1 250 32.3
2011-10-27 14:14:45 51°24.795 2°47.61 239.3 3.3 254 32.6
2011-10-27 14:15:45 51°24.779 2°47.527 240 3.2 253 32.9
2011-10-27 14:16:45 51°24.763 2°47.444 241.6 3.3 256 32.8
2011-10-27 14:17:45 51°24.771 2°47.35 269.8 3.8 291 33.4
2011-10-27 14:18:45 51°24.815 2°47.26 297.5 4.6 319 33.1
2011-10-27 14:19:45 51°24.875 2°47.194 305.1 4.2 330 30.8
2011-10-27 14:20:45 51°24.94 2°47.149 321 4.3 344 30.5
2011-10-27 14:21:45 51°25.012 2°47.136 341.2 4.4 1 28.3
2011-10-27 14:22:45 51°25.088 2°47.156 2.1 4.7 16 27
2011-10-27 14:23:45 51°25.16 2°47.207 22.9 4.9 29 27.1
2011-10-27 14:24:45 51°25.224 2°47.282 41.3 4.8 41 26.7
2011-10-27 14:25:45 51°25.277 2°47.374 59.3 4.7 53 27.7
2011-10-27 14:26:45 51°25.316 2°47.479 77 4.5 65 28.4
2011-10-27 14:27:45 51°25.341 2°47.587 91.1 4.3 74 29.1
2011-10-27 14:28:45 51°25.354 2°47.696 105.4 4.1 84 28.3
2011-10-27 14:29:45 51°25.353 2°47.802 118.2 3.9 96 28.2
2011-10-27 14:30:45 51°25.352 2°47.887 126.2 2.7 90 28.9
2011-10-27 14:31:45 51°25.355 2°47.949 129.3 2.2 81 29.3
2011-10-27 14:32:45 51°25.331 2°48.04 145.7 6.5 138 29.9
2011-10-27 14:33:45 51°25.26 2°48.09 182.1 2.8 164 30.3
2011-10-27 14:34:45 51°25.231 2°48.101 192.8 1.2 167 30.8
2011-10-27 14:35:45 51°25.219 2°48.109 193.5 0.8 144 31.3
2011-10-27 14:36:45 51°25.21 2°48.138 157 1.6 101 31.5
2011-10-27 14:37:45 51°25.208 2°48.192 138 2.3 95 31.5
2011-10-27 14:38:45 51°25.199 2°48.248 152.8 2.1 112 31.5
2011-10-27 14:39:45 51°25.182 2°48.292 167.4 2 130 31.7
2011-10-27 14:40:45 51°25.16 2°48.337 158.5 2.3 122 31.7
2011-10-27 14:41:45 51°25.142 2°48.393 147.4 2.4 110 31.3
2011-10-27 14:42:45 51°25.129 2°48.447 153.2 2 113 30.4
2011-10-27 14:43:45 51°25.115 2°48.488 167.7 1.7 121 30
2011-10-27 14:44:44 51°25.101 2°48.523 162.9 1.6 122 29.5
2011-10-27 14:45:45 51°25.089 2°48.564 156.9 1.7 115 29.1
2011-10-27 14:46:45 51°25.075 2°48.604 163.1 1.6 124 28
2011-10-27 14:47:44 51°25.059 2°48.635 174.9 1.5 142 27.1
2011-10-27 14:48:45 51°24.963 2°48.681 167.4 10 162 27.2
2011-10-27 14:49:44 51°24.79 2°48.771 165.1 11.5 163 24.3
2011-10-27 14:50:44 51°24.606 2°48.859 166.3 11.4 163 24.2
2011-10-27 14:51:44 51°24.421 2°48.929 171.5 11.4 167 24.1
2011-10-27 14:52:44 51°24.236 2°49.006 170.9 11.5 165 23.9
2011-10-27 14:53:44 51°24.054 2°49.096 166.8 11.4 163 24
2011-10-27 14:54:44 51°23.872 2°49.183 168.1 11.4 164 23.7
2011-10-27 14:55:44 51°23.687 2°49.246 172.4 11.4 167 24.2
2011-10-27 14:56:44 51°23.502 2°49.319 168.5 11.4 163 22.9
2011-10-27 14:57:44 51°23.373 2°49.514 117.8 11.7 114 21.5
2011-10-27 14:58:44 51°23.31 2°49.824 112.8 12.4 106 19.4
2011-10-27 14:59:45 51°23.253 2°50.147 112.2 12.4 108 19.1
2011-10-27 15:00:44 51°23.202 2°50.458 108 12.4 101 17.4
2011-10-27 15:01:44 51°23.144 2°50.769 120.3 12 116 16.2
2011-10-27 15:02:45 51°23.021 2°51.018 147.1 11.6 143 19
2011-10-27 15:03:44 51°22.844 2°51.105 174.6 11.5 173 23.8
2011-10-27 15:04:44 51°22.656 2°51.17 169.8 11.6 166 24.2
2011-10-27 15:05:44 51°22.468 2°51.255 166.4 11.8 161 24.2
2011-10-27 15:06:44 51°22.279 2°51.319 176.3 11.7 173 24.5
2011-10-27 15:07:44 51°22.089 2°51.372 170.1 11.7 165 24.5
2011-10-27 15:08:44 51°21.904 2°51.462 166.8 11.7 163 25.5
2011-10-27 15:09:44 51°21.717 2°51.539 175.3 11.5 172 25.5
2011-10-27 15:10:44 51°21.527 2°51.574 177.3 11.4 174 24.8
2011-10-27 15:11:44 51°21.337 2°51.618 175 11.7 170 23.1
2011-10-27 15:12:44 51°21.149 2°51.673 172.1 11.5 169 20.5
2011-10-27 15:13:44 51°20.962 2°51.728 175.7 11.5 174 18.5
2011-10-27 15:14:44 51°20.77 2°51.755 175.3 11.6 174 17.1
2011-10-27 15:15:44 51°20.581 2°51.807 171.5 11.5 171 15.3
2011-10-27 15:16:44 51°20.391 2°51.842 172.6 11.5 170 15.5
2011-10-27 15:17:44 51°20.202 2°51.883 177.5 11.6 176 15.8
2011-10-27 15:18:44 51°20.011 2°51.906 177 11.5 176 16.8
2011-10-27 15:19:44 51°19.82 2°51.936 173.9 11.5 172 17.1
2011-10-27 15:20:45 51°19.628 2°51.983 173.1 11.5 172 17.1
2011-10-27 15:21:44 51°19.442 2°52.013 176.8 11.5 175 16.8
2011-10-27 15:22:44 51°19.253 2°52.052 171.3 11.5 170 16.5
2011-10-27 15:23:44 51°19.064 2°52.098 174.5 11.5 174 15.5
2011-10-27 15:24:44 51°18.874 2°52.12 175.8 11.5 175 14.6
2011-10-27 15:25:44 51°18.685 2°52.165 168.7 11.5 168 13.6
2011-10-27 15:26:44 51°18.497 2°52.205 175.7 11.3 177 12.8
2011-10-27 15:27:44 51°18.306 2°52.203 182.4 11.5 184 12.6
2011-10-27 15:28:45 51°18.111 2°52.19 181.1 11.5 181 12.6
2011-10-27 15:29:44 51°17.924 2°52.207 174.5 11.5 174 12.3
2011-10-27 15:30:44 51°17.734 2°52.204 181.5 11.4 183 12.5
2011-10-27 15:31:44 51°17.543 2°52.216 174.3 11.5 174 12.5
2011-10-27 15:32:44 51°17.354 2°52.263 170.3 11.6 170 12.1
2011-10-27 15:33:44 51°17.166 2°52.312 170.3 11.6 170 11.4
2011-10-27 15:34:44 51°16.982 2°52.395 159 11.6 158 10.8
2011-10-27 15:35:44 51°16.807 2°52.522 153.4 11.5 152 11.2
2011-10-27 15:36:44 51°16.639 2°52.674 150.9 11.8 150 12.3
2011-10-27 15:37:45 51°16.467 2°52.833 150.4 11.8 149 13.2
2011-10-27 15:38:44 51°16.295 2°52.976 152.7 11.9 152 13.2
2011-10-27 15:39:44 51°16.13 2°53.149 144.5 11.7 146 13.4
2011-10-27 15:40:44 51°15.972 2°53.339 141.7 11.8 141 12.9
2011-10-27 15:41:44 51°15.812 2°53.525 144.1 11.8 142 13
2011-10-27 15:42:44 51°15.652 2°53.711 143.5 11.8 144 12.7
2011-10-27 15:43:44 51°15.489 2°53.89 143.1 12 144 12.8
2011-10-27 15:44:44 51°15.326 2°54.071 143.4 11.9 146 12.7
2011-10-27 15:45:44 51°15.162 2°54.251 143.3 11.9 145 12.7
2011-10-27 15:46:44 51°15.004 2°54.439 143.4 11.8 144 12.3
2011-10-27 15:47:45 51°14.844 2°54.63 142.2 11.7 143 12.8
2011-10-27 15:48:44 51°14.688 2°54.807 141 11.6 146 12.3
2011-10-27 15:49:44 51°14.53 2°54.991 138.2 11.9 143 12.7
2011-10-27 15:50:44 51°14.373 2°55.175 141.9 11.4 144 10.8
2011-10-27 15:51:44 51°14.229 2°55.336 146.9 9.7 150 11.7
2011-10-27 15:52:44 51°14.101 2°55.438 154.4 8.1 156 11.7
2011-10-27 15:53:45 51°13.989 2°55.516 155.3 6.7 156 12
2011-10-27 15:54:44 51°13.889 2°55.586 154.7 6.9 156 12.2
2011-10-27 15:55:48 51°13.791 2°55.678 140.5 5.8 142 12.4
2011-10-27 15:56:24 51°13.751 2°55.735 128.7 -999 315 -999
2011-10-27 15:57:48 51°13.685 2°55.868 125.7 2.6 125 -999
2011-10-27 15:58:48 51°13.65 2°55.95 113.4 3.7 116 -999
2011-10-27 15:59:48 51°13.636 2°56.012 112.9 0.7 103 -999
2011-10-27 16:00:48 51°13.635 2°56.018 120.3 0.2 64 -999